KMPO

Pocono Mountains Municipal Airport

Mount Pocono, Pennsylvania, USA
METAR KMPO 240153Z AUTO 31008KT 10SM CLR 16/10 A3008 RMK AO2 SLP181 T01560100
Observed Flight Rules
May-24 @ 01:53 UTC (24 minutes ago) Visual Flight Rules
Wind Visibility Clouds
310° at 8 knots 10 miles
  • Clear skies
Temperatures Readings
Current 16°C / 61°F
Dewpoint 10°C / 50°F
Humidity 68%
Altimeter 30.08" Hg
Pressure 1018.1 hPa
Elevation 577
METAR KMPO 240153Z AUTO 31008KT 10SM CLR 16/10 A3008 RMK AO2 SLP181 T01560100
Observed Flight Rules
May-24 @ 01:53 UTC
(24 minutes ago)
VFR
Wind Visibility
310° at 8 knots 10 miles
Clouds
  • Clear skies
Temperature Dewpoint
16°C / 61°F 10°C / 50°F
Humidity Altimeter Pressure
68% 30.08" Hg 1018.1 hPa